Terminal Aerodrome Forecast
Issued by NWS

Home | Current Version | Previous Version | Text Only | Print | Product List | Glossary Off
Versions: 1 2 3 4 5 6 7 8 9 10 11 12 13 14 15

000
FTUS44 KTSA 260500 RRA
TAFMLC
TAF
KMLC 260541Z 2606/2706 19005KT P6SM BKN120
     FM261400 29006KT P6SM BKN110
     FM261800 33017KT P6SM SCT200
     FM270100 33007KT P6SM SCT200=

USA.gov is the U.S. government's official web portal to all federal, state and local government web resources and services.